To NAV CANADA Home Page Login to a new session Search on AWWS site Feedback and Comments Disclaimer Vers la page française équivalente Tips FAQ What's new on the site To the Forecasts and Observations / NOTAM section To "File a Flight Plan" website Publications and other links Update of the User's profile FIC Telephone Numbers My Weather Data Folder Route Weather Data Regional Weather Data Local Weather Data To the Forecasts and Observations / NOTAM section
Request Generated 07/31/2016 at 05:25:05 UTC . Weather information available at that time is displayed.

METAR/TAF

COMOX/BC    

METAR CYQQ 310500Z 34012KT 20SM FEW100 16/10 A2993 RMK AC1 SLP137=
METAR CYQQ 310400Z 35016KT 20SM FEW100 17/10 A2992 RMK AC1 SLP134=
METAR CYQQ 310300Z 34014KT 20SM FEW040 FEW085 18/10 A2992 RMK SC1AC2 SLP132=

TAF CYQQ 302339Z 3100/3124 35015G25KT P6SM FEW030
BECMG 3108/3110 33010KT
BECMG 3118/3120 36006KT
RMK NXT FCST BY 310600Z=
Your time UTC time
Weather data provided by Environment Canada and NAV CANADA